createdAt,value
2018-08-28T00:01:52.800Z,7.67
2018-08-28T00:04:21.028Z,11.87
2018-08-28T00:06:49.259Z,8.30
2018-08-28T00:09:17.472Z,8.93
2018-08-28T00:11:45.703Z,8.63
2018-08-28T00:14:13.932Z,9.97
2018-08-28T00:16:42.143Z,9.33
2018-08-28T00:19:10.366Z,7.57
2018-08-28T00:21:38.588Z,8.97
2018-08-28T00:24:06.793Z,6.57
2018-08-28T00:26:35.042Z,7.07
2018-08-28T00:29:03.388Z,6.83
2018-08-28T00:31:31.623Z,10.47
2018-08-28T00:33:59.824Z,6.30
2018-08-28T00:36:28.068Z,7.53
2018-08-28T00:38:56.284Z,7.23
2018-08-28T00:41:24.511Z,6.33
2018-08-28T00:43:52.724Z,8.67
2018-08-28T00:46:20.956Z,8.93
2018-08-28T00:48:49.353Z,7.80
2018-08-28T00:51:17.582Z,7.93
2018-08-28T00:53:45.787Z,9.77
2018-08-28T00:56:14.008Z,7.67
2018-08-28T00:58:42.492Z,7.03
2018-08-28T01:01:10.719Z,9.57
2018-08-28T01:03:38.932Z,5.97
2018-08-28T01:06:07.170Z,6.70
2018-08-28T01:08:35.593Z,7.70
2018-08-28T01:11:03.814Z,7.07
2018-08-28T01:13:32.026Z,8.53
2018-08-28T01:16:00.231Z,6.93
2018-08-28T01:18:28.480Z,7.57
2018-08-28T01:20:56.718Z,6.97
2018-08-28T01:23:25.012Z,7.03
2018-08-28T01:25:53.247Z,7.00
2018-08-28T01:28:21.490Z,7.23
2018-08-28T01:30:49.715Z,7.63
2018-08-28T01:33:17.932Z,6.60
2018-08-28T01:35:46.122Z,7.17
2018-08-28T01:38:14.383Z,9.10
2018-08-28T01:40:42.601Z,6.73
2018-08-28T01:43:16.288Z,7.93
2018-08-28T01:45:44.508Z,7.17
2018-08-28T01:48:12.752Z,9.37
2018-08-28T01:50:40.992Z,5.83
2018-08-28T01:53:09.228Z,7.57
2018-08-28T01:55:37.437Z,7.37
2018-08-28T01:58:05.928Z,6.70
2018-08-28T02:00:34.299Z,7.93
2018-08-28T02:03:02.522Z,7.27
2018-08-28T02:05:30.768Z,8.53
2018-08-28T02:07:59.004Z,8.37
2018-08-28T02:10:27.247Z,9.57
2018-08-28T02:12:55.483Z,7.73
2018-08-28T02:15:23.728Z,7.37
2018-08-28T02:17:51.980Z,9.07
2018-08-28T02:20:20.197Z,8.30
2018-08-28T02:22:48.446Z,8.63
2018-08-28T02:25:16.675Z,9.00
2018-08-28T02:27:44.912Z,9.30
2018-08-28T02:30:13.131Z,8.67
2018-08-28T02:32:41.368Z,8.13
2018-08-28T02:35:09.572Z,7.43
2018-08-28T02:37:37.798Z,8.43
2018-08-28T02:40:06.079Z,8.00
2018-08-28T02:42:34.316Z,9.43
2018-08-28T02:45:02.562Z,8.13
2018-08-28T02:47:30.796Z,7.23
2018-08-28T02:49:59.026Z,7.60
2018-08-28T02:52:27.256Z,9.37
2018-08-28T02:54:55.464Z,7.53
2018-08-28T02:57:23.708Z,9.40
2018-08-28T02:59:51.919Z,8.23
2018-08-28T03:02:20.148Z,9.20
2018-08-28T03:04:48.367Z,9.67
2018-08-28T03:07:16.636Z,11.70
2018-08-28T03:09:44.876Z,9.10
2018-08-28T03:12:13.082Z,9.53
2018-08-28T03:14:41.349Z,10.83
2018-08-28T03:17:09.589Z,6.77
2018-08-28T03:19:37.859Z,9.17
2018-08-28T03:22:06.068Z,9.87
2018-08-28T03:24:34.299Z,9.97
2018-08-28T03:27:02.487Z,9.97
2018-08-28T03:29:30.763Z,7.50
2018-08-28T03:31:58.978Z,9.67
2018-08-28T03:34:27.236Z,8.97
2018-08-28T03:36:55.674Z,9.43
2018-08-28T03:39:24.499Z,8.60
2018-08-28T03:41:52.740Z,10.67
2018-08-28T03:44:20.982Z,10.47
2018-08-28T03:46:49.237Z,9.93
2018-08-28T03:49:17.479Z,10.63
2018-08-28T03:51:45.683Z,9.70
2018-08-28T03:54:13.969Z,10.27
2018-08-28T03:56:42.211Z,10.00
2018-08-28T03:59:10.547Z,9.40
2018-08-28T04:01:38.791Z,7.13
2018-08-28T04:04:07.019Z,11.23
2018-08-28T04:06:35.212Z,9.47
2018-08-28T04:09:03.585Z,14.57
2018-08-28T04:11:31.847Z,10.57
2018-08-28T04:14:00.106Z,9.30
2018-08-28T04:16:28.332Z,14.10
2018-08-28T04:18:56.621Z,9.73
2018-08-28T04:21:24.818Z,13.03
2018-08-28T04:23:53.055Z,10.23
2018-08-28T04:26:21.284Z,11.03
2018-08-28T04:28:49.525Z,11.00
2018-08-28T04:31:17.747Z,12.00
2018-08-28T04:33:45.983Z,14.83
2018-08-28T04:36:14.267Z,13.53
2018-08-28T04:38:42.614Z,10.50
2018-08-28T04:41:11.028Z,9.40
2018-08-28T04:43:39.355Z,12.87
2018-08-28T04:46:07.883Z,10.67
2018-08-28T04:48:36.219Z,11.47
2018-08-28T04:51:04.391Z,17.50
2018-08-28T04:53:32.624Z,12.43
2018-08-28T04:56:00.893Z,9.13
2018-08-28T04:58:29.129Z,13.43
2018-08-28T05:00:57.347Z,9.43
2018-08-28T05:03:25.593Z,7.40
2018-08-28T05:05:53.830Z,13.30
2018-08-28T05:08:22.143Z,13.27
2018-08-28T05:10:50.381Z,11.10
2018-08-28T05:13:18.691Z,7.50
2018-08-28T05:15:47.130Z,11.20
2018-08-28T05:18:15.378Z,18.27
2018-08-28T05:21:03.308Z,14.37
2018-08-28T05:23:31.541Z,14.60
2018-08-28T05:26:00.156Z,11.30
2018-08-28T05:28:28.396Z,12.73
2018-08-28T05:30:56.656Z,8.87
2018-08-28T05:33:26.142Z,10.53
2018-08-28T05:35:54.367Z,9.33
2018-08-28T05:38:22.572Z,13.03
2018-08-28T05:40:50.830Z,11.67
2018-08-28T05:43:19.124Z,9.63
2018-08-28T05:45:49.567Z,11.27
2018-08-28T05:48:17.774Z,16.13
2018-08-28T05:50:46.020Z,16.13
2018-08-28T05:53:18.615Z,17.27
2018-08-28T05:55:46.921Z,16.97
2018-08-28T05:58:15.096Z,15.87
2018-08-28T06:00:43.344Z,12.43
2018-08-28T06:03:11.992Z,12.53
2018-08-28T06:05:40.227Z,9.03
2018-08-28T06:08:08.463Z,13.93
2018-08-28T06:10:37.440Z,12.53
2018-08-28T06:13:05.656Z,9.53
2018-08-28T06:15:33.920Z,8.30
2018-08-28T06:18:02.207Z,10.33
2018-08-28T06:20:30.443Z,11.87
2018-08-28T06:22:58.701Z,12.93
2018-08-28T06:25:26.961Z,12.57
2018-08-28T06:27:55.192Z,10.77
2018-08-28T06:30:23.442Z,13.33
2018-08-28T06:32:51.891Z,13.17
2018-08-28T06:35:20.120Z,10.93
2018-08-28T06:37:48.341Z,10.10
2018-08-28T06:40:16.596Z,8.53
2018-08-28T06:42:44.828Z,8.80
2018-08-28T06:45:13.075Z,15.23
2018-08-28T06:47:41.364Z,8.57
2018-08-28T06:50:09.923Z,11.57
2018-08-28T06:52:38.609Z,12.03
2018-08-28T06:55:07.015Z,9.03
2018-08-28T06:57:35.263Z,8.00
2018-08-28T07:00:03.559Z,10.53
2018-08-28T07:02:31.801Z,9.50
2018-08-28T07:05:00.027Z,9.53
2018-08-28T07:07:28.267Z,9.63
2018-08-28T07:09:56.503Z,10.13
2018-08-28T07:12:24.732Z,8.23
2018-08-28T07:14:53.029Z,9.97
2018-08-28T07:17:21.358Z,10.10
2018-08-28T07:19:49.608Z,9.40
2018-08-28T07:22:17.879Z,7.33
2018-08-28T07:24:46.099Z,9.83
2018-08-28T07:27:14.323Z,7.47
2018-08-28T07:29:42.540Z,6.80
2018-08-28T07:32:10.769Z,8.53
2018-08-28T07:34:39.004Z,8.50
2018-08-28T07:37:07.370Z,6.47
2018-08-28T07:39:35.569Z,7.63
2018-08-28T07:42:03.800Z,8.67
2018-08-28T07:44:32.016Z,5.83
2018-08-28T07:47:01.960Z,6.83
2018-08-28T07:49:30.287Z,6.75
2018-08-28T07:51:58.583Z,8.53
2018-08-28T07:54:26.779Z,7.85
2018-08-28T07:56:55.019Z,7.45
2018-08-28T07:59:23.239Z,9.48
2018-08-28T08:01:51.490Z,10.68
2018-08-28T08:04:19.703Z,7.85
2018-08-28T08:06:47.965Z,6.60
2018-08-28T08:09:16.179Z,7.85
2018-08-28T08:11:44.403Z,9.05
2018-08-28T08:14:12.640Z,4.92
2018-08-28T08:16:40.936Z,7.83
2018-08-28T08:19:09.167Z,8.78
2018-08-28T08:21:37.915Z,6.37
2018-08-28T08:24:06.119Z,6.77
2018-08-28T08:26:34.364Z,8.70
2018-08-28T08:29:02.591Z,7.90
2018-08-28T08:31:30.836Z,8.28
2018-08-28T08:33:59.033Z,8.30
2018-08-28T08:36:27.350Z,6.62
2018-08-28T08:38:55.560Z,6.05
2018-08-28T08:41:23.781Z,5.37
2018-08-28T08:43:51.988Z,7.20
2018-08-28T08:46:20.199Z,8.93
2018-08-28T08:48:48.412Z,7.20
2018-08-28T08:51:16.682Z,5.53
2018-08-28T08:53:44.912Z,4.47
2018-08-28T08:56:13.139Z,4.47
2018-08-28T08:58:41.355Z,5.33
2018-08-28T09:01:09.645Z,5.95
2018-08-28T09:03:37.899Z,6.50
2018-08-28T09:06:06.303Z,4.67
2018-08-28T09:08:34.505Z,5.12
2018-08-28T09:11:02.731Z,6.50
2018-08-28T09:13:31.330Z,6.72
2018-08-28T09:15:59.576Z,4.00
2018-08-28T09:18:27.851Z,5.17
2018-08-28T09:20:56.128Z,4.10
2018-08-28T09:23:24.364Z,6.47
2018-08-28T09:25:52.575Z,6.70
2018-08-28T09:28:20.809Z,5.87
2018-08-28T09:30:49.581Z,6.47
2018-08-28T09:33:17.852Z,4.13
2018-08-28T09:35:46.053Z,7.73
2018-08-28T09:38:14.350Z,4.17
2018-08-28T09:40:42.554Z,5.77
2018-08-28T09:43:10.786Z,5.97
2018-08-28T09:45:39.180Z,6.45
2018-08-28T09:48:07.464Z,5.77
2018-08-28T09:50:35.723Z,10.17
2018-08-28T09:53:04.020Z,6.20
2018-08-28T09:55:32.244Z,6.20
2018-08-28T09:58:00.510Z,6.63
2018-08-28T10:00:30.149Z,7.00
2018-08-28T10:02:59.063Z,6.20
2018-08-28T10:05:27.281Z,5.13
2018-08-28T10:07:55.547Z,6.57
2018-08-28T10:10:23.744Z,5.43
2018-08-28T10:12:52.013Z,5.30
2018-08-28T10:15:20.256Z,5.33
2018-08-28T10:17:48.478Z,7.20
2018-08-28T10:20:16.717Z,5.63
2018-08-28T10:22:45.461Z,7.13
2018-08-28T10:25:13.669Z,6.37
2018-08-28T10:27:41.927Z,5.67
2018-08-28T10:30:10.216Z,8.13
2018-08-28T10:32:38.415Z,7.17
2018-08-28T10:35:06.647Z,7.93
2018-08-28T10:37:34.899Z,6.97
2018-08-28T10:40:03.110Z,7.37
2018-08-28T10:42:31.324Z,5.53
2018-08-28T10:44:59.552Z,5.70
2018-08-28T10:47:27.795Z,5.97
2018-08-28T10:49:56.021Z,8.57
2018-08-28T10:52:24.260Z,8.40
2018-08-28T10:54:52.527Z,6.33
2018-08-28T10:57:20.771Z,6.33
2018-08-28T10:59:49.659Z,7.07
2018-08-28T11:02:17.911Z,6.73
2018-08-28T11:04:46.144Z,7.57
2018-08-28T11:07:14.361Z,7.13
2018-08-28T11:09:42.581Z,6.53
2018-08-28T11:12:10.809Z,6.78
2018-08-28T11:14:39.118Z,7.33
2018-08-28T11:17:07.335Z,5.50
2018-08-28T11:19:35.571Z,6.67
2018-08-28T11:22:03.857Z,6.45
2018-08-28T11:24:32.123Z,7.08
2018-08-28T11:27:00.324Z,8.45
2018-08-28T11:29:29.452Z,7.00
2018-08-28T11:31:57.728Z,8.77
2018-08-28T11:34:25.960Z,6.67
2018-08-28T11:36:54.528Z,7.53
2018-08-28T11:39:22.786Z,6.30
2018-08-28T11:41:51.026Z,6.97
2018-08-28T11:44:19.321Z,6.20
2018-08-28T11:46:47.544Z,8.08
2018-08-28T11:49:15.787Z,7.00
2018-08-28T11:51:44.022Z,7.35
2018-08-28T11:54:12.320Z,7.05
2018-08-28T11:56:40.550Z,5.30
2018-08-28T11:59:08.787Z,7.28
2018-08-28T12:01:37.018Z,6.25
2018-08-28T12:04:05.253Z,6.00
2018-08-28T12:06:33.597Z,7.53
2018-08-28T12:09:01.841Z,7.92
2018-08-28T12:11:30.071Z,7.70
2018-08-28T12:13:58.303Z,6.45
2018-08-28T12:16:26.508Z,6.60
2018-08-28T12:18:54.743Z,6.15
2018-08-28T12:21:22.984Z,6.87
2018-08-28T12:23:51.212Z,5.72
2018-08-28T12:26:19.429Z,6.03
2018-08-28T12:28:47.668Z,6.53
2018-08-28T12:31:15.895Z,6.00
2018-08-28T12:33:44.147Z,7.42
2018-08-28T12:36:12.347Z,6.28
2018-08-28T12:38:40.606Z,11.40
2018-08-28T12:41:08.834Z,10.03
2018-08-28T12:43:37.135Z,6.67
2018-08-28T12:46:05.479Z,8.10
2018-08-28T12:48:33.659Z,7.37
2018-08-28T12:51:01.936Z,7.73
2018-08-28T12:53:30.230Z,7.55
2018-08-28T12:55:58.389Z,7.78
2018-08-28T12:58:26.619Z,10.72
2018-08-28T13:00:54.811Z,6.72
2018-08-28T13:03:23.089Z,8.55
2018-08-28T13:05:51.485Z,7.07
2018-08-28T13:08:20.033Z,7.22
2018-08-28T13:10:48.316Z,9.15
2018-08-28T13:13:16.569Z,7.85
2018-08-28T13:15:44.832Z,10.08
2018-08-28T13:18:13.100Z,6.50
2018-08-28T13:20:41.340Z,8.58
2018-08-28T13:23:09.543Z,7.10
2018-08-28T13:25:37.981Z,8.20
2018-08-28T13:28:06.227Z,5.90
2018-08-28T13:30:34.473Z,9.18
2018-08-28T13:33:02.771Z,7.92
2018-08-28T13:35:30.992Z,10.28
2018-08-28T13:37:59.523Z,7.37
2018-08-28T13:40:27.882Z,12.60
2018-08-28T13:42:56.130Z,6.85
2018-08-28T13:45:24.412Z,8.63
2018-08-28T13:47:52.661Z,8.83
2018-08-28T13:50:21.592Z,8.43
2018-08-28T13:52:49.893Z,7.72
2018-08-28T13:55:18.186Z,7.30
2018-08-28T13:57:46.438Z,9.18
2018-08-28T14:00:14.763Z,7.70
2018-08-28T14:02:43.412Z,7.12
2018-08-28T14:05:11.763Z,8.40
2018-08-28T14:07:39.976Z,7.90
2018-08-28T14:10:08.318Z,9.83
2018-08-28T14:12:36.548Z,6.30
2018-08-28T14:15:04.895Z,7.27
2018-08-28T14:17:33.271Z,10.80
2018-08-28T14:20:01.528Z,7.53
2018-08-28T14:22:29.783Z,9.10
2018-08-28T14:24:57.993Z,7.67
2018-08-28T14:27:26.220Z,7.87
2018-08-28T14:29:54.508Z,7.67
2018-08-28T14:32:22.773Z,7.20
2018-08-28T14:34:51.062Z,7.70
2018-08-28T14:37:19.316Z,9.27
2018-08-28T14:39:47.572Z,6.83
2018-08-28T14:42:15.872Z,7.77
2018-08-28T14:44:44.152Z,7.47
2018-08-28T14:47:12.402Z,8.53
2018-08-28T14:49:40.715Z,9.40
2018-08-28T14:52:08.949Z,7.77
2018-08-28T14:54:37.238Z,9.43
2018-08-28T14:57:05.509Z,7.43
2018-08-28T14:59:33.770Z,6.97
2018-08-28T15:02:02.062Z,10.03
2018-08-28T15:04:30.405Z,10.00
2018-08-28T15:06:58.749Z,9.37
2018-08-28T15:09:26.985Z,7.53
2018-08-28T15:11:55.243Z,10.07
2018-08-28T15:14:23.451Z,10.23
2018-08-28T15:16:51.671Z,8.93
2018-08-28T15:19:19.921Z,7.23
2018-08-28T15:21:48.148Z,8.63
2018-08-28T15:24:16.371Z,8.87
2018-08-28T15:26:44.666Z,6.53
2018-08-28T15:29:12.867Z,8.07
2018-08-28T15:31:41.145Z,7.53
2018-08-28T15:34:09.724Z,6.97
2018-08-28T15:36:37.992Z,7.70
2018-08-28T15:39:06.881Z,6.93
2018-08-28T15:41:35.116Z,7.27
2018-08-28T15:44:03.389Z,7.17
2018-08-28T15:46:31.849Z,7.30
2018-08-28T15:49:00.141Z,6.57
2018-08-28T15:51:29.098Z,9.03
2018-08-28T15:53:57.126Z,8.50
2018-08-28T15:56:25.360Z,9.03
2018-08-28T15:58:53.611Z,11.87
2018-08-28T16:01:21.856Z,6.70
2018-08-28T16:03:50.073Z,5.93
2018-08-28T16:06:18.289Z,6.47
2018-08-28T16:08:46.549Z,7.77
2018-08-28T16:11:14.812Z,7.43
2018-08-28T16:13:43.124Z,7.17
2018-08-28T16:16:11.465Z,10.07
2018-08-28T16:18:39.718Z,7.97
2018-08-28T16:21:08.011Z,9.20
2018-08-28T16:23:38.557Z,8.37
2018-08-28T16:26:06.780Z,7.87
2018-08-28T16:28:35.040Z,6.97
2018-08-28T16:31:03.303Z,9.90
2018-08-28T16:33:31.663Z,7.43
2018-08-28T16:35:59.909Z,8.10
2018-08-28T16:38:28.147Z,7.57
2018-08-28T16:40:56.410Z,8.43
2018-08-28T16:43:24.839Z,6.67
2018-08-28T16:45:53.081Z,12.33
2018-08-28T16:48:22.373Z,9.10
2018-08-28T16:50:50.669Z,9.73
2018-08-28T16:53:19.021Z,5.47
2018-08-28T16:55:47.301Z,7.73
2018-08-28T16:58:15.566Z,6.87
2018-08-28T17:00:43.780Z,7.17
2018-08-28T17:03:12.056Z,8.40
2018-08-28T17:05:40.297Z,9.97
2018-08-28T17:08:08.661Z,8.07
2018-08-28T17:10:36.963Z,8.87
2018-08-28T17:13:05.295Z,9.30
2018-08-28T17:15:33.555Z,9.63
2018-08-28T17:18:01.862Z,6.93
2018-08-28T17:20:30.120Z,5.73
2018-08-28T17:22:58.628Z,9.00
2018-08-28T17:25:26.921Z,7.23
2018-08-28T17:27:55.150Z,6.30
2018-08-28T17:30:23.375Z,6.80
2018-08-28T17:32:51.862Z,6.73
2018-08-28T17:35:20.104Z,6.63
2018-08-28T17:37:48.379Z,8.27
2018-08-28T17:40:16.628Z,5.90
2018-08-28T17:42:44.950Z,6.63
2018-08-28T17:45:13.116Z,7.07
2018-08-28T17:47:41.349Z,6.63
2018-08-28T17:50:09.783Z,8.10
2018-08-28T17:52:38.032Z,8.43
2018-08-28T17:55:06.556Z,7.47
2018-08-28T17:57:35.199Z,7.63
2018-08-28T18:00:03.451Z,8.33
2018-08-28T18:02:31.710Z,7.73
2018-08-28T18:04:59.925Z,8.23
2018-08-28T18:07:28.195Z,9.50
2018-08-28T18:09:56.411Z,7.90
2018-08-28T18:12:24.644Z,14.43
2018-08-28T18:14:52.858Z,7.60
2018-08-28T18:17:21.332Z,8.43
2018-08-28T18:19:49.558Z,17.17
2018-08-28T18:22:17.821Z,7.27
2018-08-28T18:24:46.033Z,8.50
2018-08-28T18:27:14.268Z,11.20
2018-08-28T18:29:42.483Z,8.73
2018-08-28T18:32:11.355Z,7.03
2018-08-28T18:34:39.689Z,9.87
2018-08-28T18:37:07.866Z,12.13
2018-08-28T18:39:36.098Z,9.03
2018-08-28T18:42:04.331Z,10.23
2018-08-28T18:44:32.648Z,10.53
2018-08-28T18:47:02.426Z,10.80
2018-08-28T18:49:30.583Z,11.77
2018-08-28T18:51:59.220Z,13.90
2018-08-28T18:54:27.488Z,11.93
2018-08-28T18:56:55.713Z,13.97
2018-08-28T18:59:23.996Z,15.87
2018-08-28T19:01:52.216Z,17.90
2018-08-28T19:04:20.503Z,16.20
2018-08-28T19:06:48.743Z,14.33
2018-08-28T19:09:17.168Z,16.10
2018-08-28T19:11:45.619Z,15.27
2018-08-28T19:14:13.849Z,13.53
2018-08-28T19:16:42.059Z,19.13
2018-08-28T19:19:11.313Z,21.73
2018-08-28T19:21:39.640Z,19.77
2018-08-28T19:24:08.180Z,27.27
2018-08-28T19:26:36.442Z,16.93
2018-08-28T19:29:04.800Z,19.87
2018-08-28T19:31:33.216Z,21.67
2018-08-28T19:34:01.422Z,22.73
2018-08-28T19:36:29.731Z,18.73
2018-08-28T19:38:57.983Z,17.60
2018-08-28T19:41:26.220Z,18.30
2018-08-28T19:43:55.272Z,16.00
2018-08-28T19:46:23.502Z,18.43
2018-08-28T19:48:51.759Z,17.87
2018-08-28T19:51:20.658Z,17.23
2018-08-28T19:53:49.023Z,16.37
2018-08-28T19:56:17.220Z,17.20
2018-08-28T19:58:45.485Z,16.23
2018-08-28T20:01:13.758Z,14.77
2018-08-28T20:03:42.038Z,14.73
2018-08-28T20:06:10.264Z,16.67
2018-08-28T20:08:38.524Z,15.03
2018-08-28T20:11:06.760Z,14.63
2018-08-28T20:13:35.007Z,13.70
2018-08-28T20:16:03.265Z,12.60
2018-08-28T20:18:31.615Z,8.80
2018-08-28T20:20:59.828Z,11.70
2018-08-28T20:23:28.190Z,14.37
2018-08-28T20:25:56.404Z,12.90
2018-08-28T20:28:24.712Z,11.73
2018-08-28T20:30:53.004Z,9.40
2018-08-28T20:33:21.235Z,13.67
2018-08-28T20:35:49.543Z,14.50
2018-08-28T20:38:17.839Z,11.70
2018-08-28T20:40:46.069Z,11.30
2018-08-28T20:43:14.332Z,13.63
2018-08-28T20:45:42.584Z,9.67
2018-08-28T20:48:10.827Z,10.60
2018-08-28T20:50:39.099Z,10.33
2018-08-28T20:53:07.413Z,13.40
2018-08-28T20:55:35.715Z,10.23
2018-08-28T20:58:03.988Z,11.63
2018-08-28T21:00:35.164Z,10.90
2018-08-28T21:03:03.692Z,9.67
2018-08-28T21:05:31.940Z,10.77
2018-08-28T21:08:01.206Z,9.13
2018-08-28T21:10:30.124Z,11.23
2018-08-28T21:12:58.724Z,9.83
2018-08-28T21:15:26.932Z,10.20
2018-08-28T21:17:55.171Z,10.67
2018-08-28T21:20:23.464Z,14.43
2018-08-28T21:22:51.722Z,10.70
2018-08-28T21:25:19.944Z,11.90
2018-08-28T21:27:48.168Z,10.60
2018-08-28T21:30:16.398Z,9.70
2018-08-28T21:32:44.756Z,10.33
2018-08-28T21:35:13.006Z,12.43
2018-08-28T21:37:41.221Z,12.53
2018-08-28T21:40:09.529Z,16.00
2018-08-28T21:42:37.772Z,11.60
2018-08-28T21:45:06.047Z,12.47
2018-08-28T21:47:34.285Z,12.40
2018-08-28T21:50:02.540Z,9.50
2018-08-28T21:52:30.772Z,12.73
2018-08-28T21:54:59.039Z,11.77
2018-08-28T21:57:27.291Z,12.13
2018-08-28T21:59:55.510Z,13.63
2018-08-28T22:02:23.754Z,10.73
2018-08-28T22:04:51.992Z,9.77
2018-08-28T22:07:25.529Z,12.77
2018-08-28T22:09:53.756Z,9.43
2018-08-28T22:12:21.988Z,10.77
2018-08-28T22:14:50.206Z,13.23
2018-08-28T22:17:18.410Z,11.63
2018-08-28T22:19:46.647Z,13.50
2018-08-28T22:22:14.877Z,9.33
2018-08-28T22:24:43.106Z,10.47
2018-08-28T22:27:11.331Z,10.73
2018-08-28T22:29:39.620Z,11.53
2018-08-28T22:32:07.808Z,8.80
2018-08-28T22:34:36.049Z,12.80
2018-08-28T22:37:04.275Z,9.43
2018-08-28T22:39:32.519Z,11.53
2018-08-28T22:42:00.749Z,11.70
2018-08-28T22:44:29.005Z,12.53
2018-08-28T22:46:57.291Z,9.00
2018-08-28T22:49:25.531Z,11.03
2018-08-28T22:51:53.793Z,10.30
2018-08-28T22:54:22.036Z,11.10
2018-08-28T22:56:50.247Z,9.93
2018-08-28T22:59:18.455Z,9.07
2018-08-28T23:01:46.763Z,8.37
2018-08-28T23:04:15.001Z,8.77
2018-08-28T23:06:43.247Z,12.87
2018-08-28T23:09:11.452Z,14.20
2018-08-28T23:11:39.696Z,10.37
2018-08-28T23:14:07.919Z,10.33
2018-08-28T23:16:36.147Z,10.33
2018-08-28T23:19:04.430Z,7.73
2018-08-28T23:21:32.649Z,8.43
2018-08-28T23:24:00.885Z,8.80
2018-08-28T23:26:29.128Z,9.70
2018-08-28T23:28:57.359Z,11.83
2018-08-28T23:31:25.599Z,9.60
2018-08-28T23:33:53.816Z,12.90
2018-08-28T23:36:22.035Z,12.57
2018-08-28T23:38:50.231Z,8.93
2018-08-28T23:41:18.452Z,10.87
2018-08-28T23:43:46.647Z,9.27
2018-08-28T23:46:14.916Z,8.40
2018-08-28T23:48:43.146Z,9.43
2018-08-28T23:51:11.371Z,9.37
2018-08-28T23:53:39.583Z,10.10
2018-08-28T23:56:08.027Z,8.10
2018-08-28T23:58:36.229Z,11.87
